sensor_id;sensor_type;location;lat;lon;timestamp;P1;durP1;ratioP1;P2;durP2;ratioP2
54699;SDS011;40599;53.132;6.090;2023-06-10T00:01:27;16.98;;;9.15;;
54699;SDS011;40599;53.132;6.090;2023-06-10T00:03:53;14.02;;;9.20;;
54699;SDS011;40599;53.132;6.090;2023-06-10T00:06:19;17.33;;;9.48;;
54699;SDS011;40599;53.132;6.090;2023-06-10T00:08:49;17.40;;;9.77;;
54699;SDS011;40599;53.132;6.090;2023-06-10T00:11:15;13.40;;;9.13;;
54699;SDS011;40599;53.132;6.090;2023-06-10T00:13:41;12.93;;;9.50;;
54699;SDS011;40599;53.132;6.090;2023-06-10T00:16:07;15.23;;;8.80;;
54699;SDS011;40599;53.132;6.090;2023-06-10T00:18:34;13.40;;;9.07;;
54699;SDS011;40599;53.132;6.090;2023-06-10T00:21:02;13.00;;;8.77;;
54699;SDS011;40599;53.132;6.090;2023-06-10T00:23:32;12.87;;;9.43;;
54699;SDS011;40599;53.132;6.090;2023-06-10T00:26:03;14.13;;;8.80;;
54699;SDS011;40599;53.132;6.090;2023-06-10T00:28:29;17.65;;;9.40;;
54699;SDS011;40599;53.132;6.090;2023-06-10T00:30:56;16.50;;;9.50;;
54699;SDS011;40599;53.132;6.090;2023-06-10T00:33:22;18.55;;;8.80;;
54699;SDS011;40599;53.132;6.090;2023-06-10T00:35:48;15.52;;;8.60;;
54699;SDS011;40599;53.132;6.090;2023-06-10T00:38:14;10.65;;;8.45;;
54699;SDS011;40599;53.132;6.090;2023-06-10T00:40:41;12.10;;;8.82;;
54699;SDS011;40599;53.132;6.090;2023-06-10T00:43:07;12.43;;;8.73;;
54699;SDS011;40599;53.132;6.090;2023-06-10T00:45:33;11.32;;;8.18;;
54699;SDS011;40599;53.132;6.090;2023-06-10T00:48:00;13.82;;;9.35;;
54699;SDS011;40599;53.132;6.090;2023-06-10T00:50:27;16.48;;;9.10;;
54699;SDS011;40599;53.132;6.090;2023-06-10T00:52:56;12.68;;;9.15;;
54699;SDS011;40599;53.132;6.090;2023-06-10T00:55:23;15.20;;;9.20;;
54699;SDS011;40599;53.132;6.090;2023-06-10T00:57:49;13.80;;;9.27;;
54699;SDS011;40599;53.132;6.090;2023-06-10T01:00:16;13.40;;;9.35;;
54699;SDS011;40599;53.132;6.090;2023-06-10T01:02:43;16.88;;;9.18;;
54699;SDS011;40599;53.132;6.090;2023-06-10T01:05:09;14.45;;;9.32;;
54699;SDS011;40599;53.132;6.090;2023-06-10T01:10:12;14.23;;;9.37;;
54699;SDS011;40599;53.132;6.090;2023-06-10T01:12:43;16.77;;;10.10;;
54699;SDS011;40599;53.132;6.090;2023-06-10T01:15:14;14.63;;;9.93;;
54699;SDS011;40599;53.132;6.090;2023-06-10T01:20:43;16.10;;;9.97;;
54699;SDS011;40599;53.132;6.090;2023-06-10T01:23:11;17.27;;;9.90;;
54699;SDS011;40599;53.132;6.090;2023-06-10T01:25:38;14.57;;;9.68;;
54699;SDS011;40599;53.132;6.090;2023-06-10T01:30:30;15.97;;;9.93;;
54699;SDS011;40599;53.132;6.090;2023-06-10T01:32:58;15.93;;;9.40;;
54699;SDS011;40599;53.132;6.090;2023-06-10T01:35:25;13.50;;;9.33;;
54699;SDS011;40599;53.132;6.090;2023-06-10T01:37:53;16.85;;;10.00;;
54699;SDS011;40599;53.132;6.090;2023-06-10T01:40:20;15.33;;;9.63;;
54699;SDS011;40599;53.132;6.090;2023-06-10T01:42:46;16.77;;;9.68;;
54699;SDS011;40599;53.132;6.090;2023-06-10T01:45:12;18.58;;;10.25;;
54699;SDS011;40599;53.132;6.090;2023-06-10T01:47:39;14.15;;;9.15;;
54699;SDS011;40599;53.132;6.090;2023-06-10T01:50:05;17.55;;;10.50;;
54699;SDS011;40599;53.132;6.090;2023-06-10T01:52:31;14.57;;;10.00;;
54699;SDS011;40599;53.132;6.090;2023-06-10T01:54:57;16.95;;;10.13;;
54699;SDS011;40599;53.132;6.090;2023-06-10T01:57:24;13.25;;;9.25;;
54699;SDS011;40599;53.132;6.090;2023-06-10T01:59:50;13.02;;;9.43;;
54699;SDS011;40599;53.132;6.090;2023-06-10T02:02:16;13.27;;;10.27;;
54699;SDS011;40599;53.132;6.090;2023-06-10T02:04:42;15.38;;;9.70;;
54699;SDS011;40599;53.132;6.090;2023-06-10T02:07:08;15.63;;;9.27;;
54699;SDS011;40599;53.132;6.090;2023-06-10T02:09:35;15.07;;;9.98;;
54699;SDS011;40599;53.132;6.090;2023-06-10T02:12:04;17.42;;;9.85;;
54699;SDS011;40599;53.132;6.090;2023-06-10T02:14:32;14.73;;;10.15;;
54699;SDS011;40599;53.132;6.090;2023-06-10T02:16:58;18.27;;;9.57;;
54699;SDS011;40599;53.132;6.090;2023-06-10T02:19:24;14.80;;;9.50;;
54699;SDS011;40599;53.132;6.090;2023-06-10T02:21:51;16.10;;;9.75;;
54699;SDS011;40599;53.132;6.090;2023-06-10T02:24:18;14.05;;;9.65;;
54699;SDS011;40599;53.132;6.090;2023-06-10T02:26:44;19.73;;;10.30;;
54699;SDS011;40599;53.132;6.090;2023-06-10T02:31:37;14.75;;;10.25;;
54699;SDS011;40599;53.132;6.090;2023-06-10T02:34:04;16.42;;;10.48;;
54699;SDS011;40599;53.132;6.090;2023-06-10T02:36:30;15.68;;;10.98;;
54699;SDS011;40599;53.132;6.090;2023-06-10T02:38:57;19.10;;;10.38;;
54699;SDS011;40599;53.132;6.090;2023-06-10T02:41:23;15.10;;;10.40;;
54699;SDS011;40599;53.132;6.090;2023-06-10T02:43:50;19.70;;;10.95;;
54699;SDS011;40599;53.132;6.090;2023-06-10T02:46:16;19.73;;;11.02;;
54699;SDS011;40599;53.132;6.090;2023-06-10T02:48:43;15.35;;;9.88;;
54699;SDS011;40599;53.132;6.090;2023-06-10T02:51:09;16.55;;;10.27;;
54699;SDS011;40599;53.132;6.090;2023-06-10T02:56:02;17.70;;;10.75;;
54699;SDS011;40599;53.132;6.090;2023-06-10T02:58:28;16.90;;;10.48;;
54699;SDS011;40599;53.132;6.090;2023-06-10T03:00:54;11.50;;;9.27;;
54699;SDS011;40599;53.132;6.090;2023-06-10T03:03:20;19.60;;;11.32;;
54699;SDS011;40599;53.132;6.090;2023-06-10T03:05:47;12.73;;;9.95;;
54699;SDS011;40599;53.132;6.090;2023-06-10T03:08:14;15.93;;;10.07;;
54699;SDS011;40599;53.132;6.090;2023-06-10T03:10:40;19.92;;;9.95;;
54699;SDS011;40599;53.132;6.090;2023-06-10T03:13:06;14.57;;;9.68;;
54699;SDS011;40599;53.132;6.090;2023-06-10T03:15:32;13.38;;;10.02;;
54699;SDS011;40599;53.132;6.090;2023-06-10T03:18:01;12.68;;;10.25;;
54699;SDS011;40599;53.132;6.090;2023-06-10T03:20:27;15.43;;;10.30;;
54699;SDS011;40599;53.132;6.090;2023-06-10T03:22:55;14.00;;;9.57;;
54699;SDS011;40599;53.132;6.090;2023-06-10T03:25:21;10.45;;;8.73;;
54699;SDS011;40599;53.132;6.090;2023-06-10T03:27:47;16.13;;;9.98;;
54699;SDS011;40599;53.132;6.090;2023-06-10T03:30:13;16.77;;;9.68;;
54699;SDS011;40599;53.132;6.090;2023-06-10T03:32:40;14.57;;;9.70;;
54699;SDS011;40599;53.132;6.090;2023-06-10T03:35:06;15.15;;;10.50;;
54699;SDS011;40599;53.132;6.090;2023-06-10T03:37:32;19.27;;;9.50;;
54699;SDS011;40599;53.132;6.090;2023-06-10T03:39:59;14.40;;;8.77;;
54699;SDS011;40599;53.132;6.090;2023-06-10T03:42:25;15.10;;;10.43;;
54699;SDS011;40599;53.132;6.090;2023-06-10T03:44:51;14.27;;;9.38;;
54699;SDS011;40599;53.132;6.090;2023-06-10T03:47:17;14.52;;;9.57;;
54699;SDS011;40599;53.132;6.090;2023-06-10T03:49:43;15.20;;;9.73;;
54699;SDS011;40599;53.132;6.090;2023-06-10T03:52:10;13.43;;;10.20;;
54699;SDS011;40599;53.132;6.090;2023-06-10T03:54:36;12.50;;;9.32;;
54699;SDS011;40599;53.132;6.090;2023-06-10T03:57:02;16.60;;;9.93;;
54699;SDS011;40599;53.132;6.090;2023-06-10T03:59:28;16.65;;;9.48;;
54699;SDS011;40599;53.132;6.090;2023-06-10T04:01:55;12.70;;;8.98;;
54699;SDS011;40599;53.132;6.090;2023-06-10T04:04:21;16.42;;;10.13;;
54699;SDS011;40599;53.132;6.090;2023-06-10T04:06:47;18.45;;;9.75;;
54699;SDS011;40599;53.132;6.090;2023-06-10T04:09:14;15.25;;;9.65;;
54699;SDS011;40599;53.132;6.090;2023-06-10T04:14:07;16.95;;;9.75;;
54699;SDS011;40599;53.132;6.090;2023-06-10T04:16:34;15.52;;;9.88;;
54699;SDS011;40599;53.132;6.090;2023-06-10T04:19:00;11.93;;;9.55;;
54699;SDS011;40599;53.132;6.090;2023-06-10T04:21:26;18.23;;;9.40;;
54699;SDS011;40599;53.132;6.090;2023-06-10T04:23:53;16.27;;;9.40;;
54699;SDS011;40599;53.132;6.090;2023-06-10T04:26:19;13.60;;;9.38;;
54699;SDS011;40599;53.132;6.090;2023-06-10T04:28:45;17.80;;;10.05;;
54699;SDS011;40599;53.132;6.090;2023-06-10T04:31:11;13.52;;;9.40;;
54699;SDS011;40599;53.132;6.090;2023-06-10T04:33:38;15.73;;;9.32;;
54699;SDS011;40599;53.132;6.090;2023-06-10T04:36:04;11.82;;;9.50;;
54699;SDS011;40599;53.132;6.090;2023-06-10T04:38:31;12.85;;;9.52;;
54699;SDS011;40599;53.132;6.090;2023-06-10T04:40:59;17.77;;;10.05;;
54699;SDS011;40599;53.132;6.090;2023-06-10T04:43:26;14.98;;;9.57;;
54699;SDS011;40599;53.132;6.090;2023-06-10T04:45:54;13.70;;;9.48;;
54699;SDS011;40599;53.132;6.090;2023-06-10T04:48:20;16.83;;;9.23;;
54699;SDS011;40599;53.132;6.090;2023-06-10T04:50:46;15.70;;;10.10;;
54699;SDS011;40599;53.132;6.090;2023-06-10T04:53:12;16.48;;;10.32;;
54699;SDS011;40599;53.132;6.090;2023-06-10T04:55:39;13.40;;;9.73;;
54699;SDS011;40599;53.132;6.090;2023-06-10T04:58:05;17.30;;;10.35;;
54699;SDS011;40599;53.132;6.090;2023-06-10T05:00:31;19.33;;;9.95;;
54699;SDS011;40599;53.132;6.090;2023-06-10T05:02:57;17.45;;;9.35;;
54699;SDS011;40599;53.132;6.090;2023-06-10T05:05:24;19.65;;;9.68;;
54699;SDS011;40599;53.132;6.090;2023-06-10T05:07:50;20.83;;;10.25;;
54699;SDS011;40599;53.132;6.090;2023-06-10T05:10:16;14.82;;;9.40;;
54699;SDS011;40599;53.132;6.090;2023-06-10T05:12:42;14.32;;;9.77;;
54699;SDS011;40599;53.132;6.090;2023-06-10T05:15:08;14.48;;;9.75;;
54699;SDS011;40599;53.132;6.090;2023-06-10T05:17:35;13.32;;;9.35;;
54699;SDS011;40599;53.132;6.090;2023-06-10T05:20:01;18.85;;;10.13;;
54699;SDS011;40599;53.132;6.090;2023-06-10T05:22:28;17.48;;;10.05;;
54699;SDS011;40599;53.132;6.090;2023-06-10T05:24:54;21.38;;;10.52;;
54699;SDS011;40599;53.132;6.090;2023-06-10T05:27:20;20.85;;;10.38;;
54699;SDS011;40599;53.132;6.090;2023-06-10T05:32:13;18.97;;;10.50;;
54699;SDS011;40599;53.132;6.090;2023-06-10T05:34:39;16.25;;;9.65;;
54699;SDS011;40599;53.132;6.090;2023-06-10T05:37:05;20.27;;;10.43;;
54699;SDS011;40599;53.132;6.090;2023-06-10T05:39:32;17.88;;;10.20;;
54699;SDS011;40599;53.132;6.090;2023-06-10T05:42:02;15.53;;;10.37;;
54699;SDS011;40599;53.132;6.090;2023-06-10T05:44:29;15.88;;;9.63;;
54699;SDS011;40599;53.132;6.090;2023-06-10T05:46:55;15.15;;;9.95;;
54699;SDS011;40599;53.132;6.090;2023-06-10T05:49:21;20.13;;;10.23;;
54699;SDS011;40599;53.132;6.090;2023-06-10T05:51:47;15.40;;;9.75;;
54699;SDS011;40599;53.132;6.090;2023-06-10T05:54:13;18.45;;;9.90;;
54699;SDS011;40599;53.132;6.090;2023-06-10T05:56:39;12.35;;;9.38;;
54699;SDS011;40599;53.132;6.090;2023-06-10T05:59:05;15.57;;;9.30;;
54699;SDS011;40599;53.132;6.090;2023-06-10T06:01:31;14.20;;;9.32;;
54699;SDS011;40599;53.132;6.090;2023-06-10T06:03:58;15.80;;;9.80;;
54699;SDS011;40599;53.132;6.090;2023-06-10T06:06:24;16.77;;;9.88;;
54699;SDS011;40599;53.132;6.090;2023-06-10T06:08:50;17.05;;;9.98;;
54699;SDS011;40599;53.132;6.090;2023-06-10T06:11:16;19.63;;;9.63;;
54699;SDS011;40599;53.132;6.090;2023-06-10T06:13:43;15.25;;;10.30;;
54699;SDS011;40599;53.132;6.090;2023-06-10T06:16:09;14.48;;;9.48;;
54699;SDS011;40599;53.132;6.090;2023-06-10T06:18:35;14.93;;;9.18;;
54699;SDS011;40599;53.132;6.090;2023-06-10T06:21:01;13.95;;;9.43;;
54699;SDS011;40599;53.132;6.090;2023-06-10T06:23:27;15.30;;;9.32;;
54699;SDS011;40599;53.132;6.090;2023-06-10T06:25:53;16.88;;;9.48;;
54699;SDS011;40599;53.132;6.090;2023-06-10T06:28:20;18.48;;;9.60;;
54699;SDS011;40599;53.132;6.090;2023-06-10T06:30:47;20.27;;;10.67;;
54699;SDS011;40599;53.132;6.090;2023-06-10T06:33:13;16.60;;;9.35;;
54699;SDS011;40599;53.132;6.090;2023-06-10T06:35:39;20.20;;;9.15;;
54699;SDS011;40599;53.132;6.090;2023-06-10T06:38:05;16.55;;;9.25;;
54699;SDS011;40599;53.132;6.090;2023-06-10T06:40:32;13.30;;;8.57;;
54699;SDS011;40599;53.132;6.090;2023-06-10T06:42:58;17.13;;;10.32;;
54699;SDS011;40599;53.132;6.090;2023-06-10T06:45:24;19.35;;;12.60;;
54699;SDS011;40599;53.132;6.090;2023-06-10T06:47:50;15.10;;;9.07;;
54699;SDS011;40599;53.132;6.090;2023-06-10T06:50:16;14.95;;;8.98;;
54699;SDS011;40599;53.132;6.090;2023-06-10T06:55:09;11.30;;;8.30;;
54699;SDS011;40599;53.132;6.090;2023-06-10T06:57:35;14.32;;;7.70;;
54699;SDS011;40599;53.132;6.090;2023-06-10T07:00:02;12.00;;;8.07;;
54699;SDS011;40599;53.132;6.090;2023-06-10T07:02:28;17.92;;;10.43;;
54699;SDS011;40599;53.132;6.090;2023-06-10T07:04:54;13.95;;;7.32;;
54699;SDS011;40599;53.132;6.090;2023-06-10T07:07:21;13.20;;;9.93;;
54699;SDS011;40599;53.132;6.090;2023-06-10T07:09:47;13.95;;;9.93;;
54699;SDS011;40599;53.132;6.090;2023-06-10T07:12:13;15.80;;;7.97;;
54699;SDS011;40599;53.132;6.090;2023-06-10T07:14:39;15.02;;;13.43;;
54699;SDS011;40599;53.132;6.090;2023-06-10T07:17:05;15.65;;;9.23;;
54699;SDS011;40599;53.132;6.090;2023-06-10T07:19:32;12.10;;;6.95;;
54699;SDS011;40599;53.132;6.090;2023-06-10T07:21:58;14.90;;;8.10;;
54699;SDS011;40599;53.132;6.090;2023-06-10T07:24:24;14.25;;;9.05;;
54699;SDS011;40599;53.132;6.090;2023-06-10T07:26:50;13.30;;;7.82;;
54699;SDS011;40599;53.132;6.090;2023-06-10T07:29:17;13.90;;;7.47;;
54699;SDS011;40599;53.132;6.090;2023-06-10T07:31:43;10.85;;;6.90;;
54699;SDS011;40599;53.132;6.090;2023-06-10T07:34:09;15.23;;;6.93;;
54699;SDS011;40599;53.132;6.090;2023-06-10T07:36:35;13.98;;;8.05;;
54699;SDS011;40599;53.132;6.090;2023-06-10T07:39:02;13.30;;;11.15;;
54699;SDS011;40599;53.132;6.090;2023-06-10T07:41:28;13.93;;;8.77;;
54699;SDS011;40599;53.132;6.090;2023-06-10T07:43:54;13.15;;;6.20;;
54699;SDS011;40599;53.132;6.090;2023-06-10T07:46:21;13.00;;;6.97;;
54699;SDS011;40599;53.132;6.090;2023-06-10T07:48:48;14.00;;;6.73;;
54699;SDS011;40599;53.132;6.090;2023-06-10T07:51:14;13.82;;;8.55;;
54699;SDS011;40599;53.132;6.090;2023-06-10T07:53:41;14.13;;;7.13;;
54699;SDS011;40599;53.132;6.090;2023-06-10T07:56:07;13.65;;;9.73;;
54699;SDS011;40599;53.132;6.090;2023-06-10T07:58:34;16.30;;;7.43;;
54699;SDS011;40599;53.132;6.090;2023-06-10T08:01:00;14.02;;;6.88;;
54699;SDS011;40599;53.132;6.090;2023-06-10T08:03:26;11.57;;;6.47;;
54699;SDS011;40599;53.132;6.090;2023-06-10T08:05:54;13.43;;;12.23;;
54699;SDS011;40599;53.132;6.090;2023-06-10T08:08:20;11.77;;;6.05;;
54699;SDS011;40599;53.132;6.090;2023-06-10T08:10:46;12.93;;;6.22;;
54699;SDS011;40599;53.132;6.090;2023-06-10T08:13:14;11.43;;;7.13;;
54699;SDS011;40599;53.132;6.090;2023-06-10T08:15:40;11.07;;;6.78;;
54699;SDS011;40599;53.132;6.090;2023-06-10T08:18:06;8.68;;;5.60;;
54699;SDS011;40599;53.132;6.090;2023-06-10T08:20:32;12.20;;;10.98;;
54699;SDS011;40599;53.132;6.090;2023-06-10T08:22:59;12.45;;;5.57;;
54699;SDS011;40599;53.132;6.090;2023-06-10T08:25:25;11.52;;;6.40;;
54699;SDS011;40599;53.132;6.090;2023-06-10T08:27:51;12.02;;;9.18;;
54699;SDS011;40599;53.132;6.090;2023-06-10T08:30:17;13.20;;;10.50;;
54699;SDS011;40599;53.132;6.090;2023-06-10T08:35:09;10.83;;;8.60;;
54699;SDS011;40599;53.132;6.090;2023-06-10T08:37:36;13.07;;;5.78;;
54699;SDS011;40599;53.132;6.090;2023-06-10T08:40:02;10.43;;;5.65;;
54699;SDS011;40599;53.132;6.090;2023-06-10T08:42:31;11.70;;;5.88;;
54699;SDS011;40599;53.132;6.090;2023-06-10T08:44:58;7.90;;;5.37;;
54699;SDS011;40599;53.132;6.090;2023-06-10T08:47:28;14.17;;;6.47;;
54699;SDS011;40599;53.132;6.090;2023-06-10T08:49:56;13.60;;;6.60;;
54699;SDS011;40599;53.132;6.090;2023-06-10T08:52:26;11.63;;;6.67;;
54699;SDS011;40599;53.132;6.090;2023-06-10T08:55:03;13.43;;;6.47;;
54699;SDS011;40599;53.132;6.090;2023-06-10T08:57:30;9.00;;;5.77;;
54699;SDS011;40599;53.132;6.090;2023-06-10T08:59:57;10.50;;;6.10;;
54699;SDS011;40599;53.132;6.090;2023-06-10T09:02:23;10.83;;;7.37;;
54699;SDS011;40599;53.132;6.090;2023-06-10T09:07:16;9.43;;;6.67;;
54699;SDS011;40599;53.132;6.090;2023-06-10T09:09:42;11.65;;;7.22;;
54699;SDS011;40599;53.132;6.090;2023-06-10T09:12:09;11.07;;;7.77;;
54699;SDS011;40599;53.132;6.090;2023-06-10T09:14:35;11.63;;;7.53;;
54699;SDS011;40599;53.132;6.090;2023-06-10T09:17:02;8.57;;;6.93;;
54699;SDS011;40599;53.132;6.090;2023-06-10T09:19:28;14.43;;;9.77;;
54699;SDS011;40599;53.132;6.090;2023-06-10T09:21:54;11.85;;;10.45;;
54699;SDS011;40599;53.132;6.090;2023-06-10T09:26:47;16.50;;;15.00;;
54699;SDS011;40599;53.132;6.090;2023-06-10T09:29:13;19.83;;;17.45;;
54699;SDS011;40599;53.132;6.090;2023-06-10T09:31:39;10.73;;;9.55;;
54699;SDS011;40599;53.132;6.090;2023-06-10T09:34:12;8.83;;;7.73;;
54699;SDS011;40599;53.132;6.090;2023-06-10T09:36:39;10.77;;;9.00;;
54699;SDS011;40599;53.132;6.090;2023-06-10T09:39:13;10.10;;;5.87;;
54699;SDS011;40599;53.132;6.090;2023-06-10T09:41:41;10.57;;;6.33;;
54699;SDS011;40599;53.132;6.090;2023-06-10T09:44:11;11.47;;;5.23;;
54699;SDS011;40599;53.132;6.090;2023-06-10T09:46:38;7.53;;;5.70;;
54699;SDS011;40599;53.132;6.090;2023-06-10T09:51:30;10.67;;;5.80;;
54699;SDS011;40599;53.132;6.090;2023-06-10T09:53:56;6.53;;;5.25;;
54699;SDS011;40599;53.132;6.090;2023-06-10T09:56:32;10.67;;;5.63;;
54699;SDS011;40599;53.132;6.090;2023-06-10T09:58:59;8.13;;;5.40;;
54699;SDS011;40599;53.132;6.090;2023-06-10T10:01:25;8.23;;;5.40;;
54699;SDS011;40599;53.132;6.090;2023-06-10T10:03:51;10.20;;;5.40;;
54699;SDS011;40599;53.132;6.090;2023-06-10T10:06:18;6.72;;;4.97;;
54699;SDS011;40599;53.132;6.090;2023-06-10T10:08:45;8.53;;;5.43;;
54699;SDS011;40599;53.132;6.090;2023-06-10T10:11:11;9.33;;;5.73;;
54699;SDS011;40599;53.132;6.090;2023-06-10T10:16:11;10.77;;;5.27;;
54699;SDS011;40599;53.132;6.090;2023-06-10T10:18:41;10.23;;;5.70;;
54699;SDS011;40599;53.132;6.090;2023-06-10T10:21:12;9.90;;;4.93;;
54699;SDS011;40599;53.132;6.090;2023-06-10T10:23:40;9.37;;;5.37;;
54699;SDS011;40599;53.132;6.090;2023-06-10T10:26:10;9.30;;;5.37;;
54699;SDS011;40599;53.132;6.090;2023-06-10T10:28:47;11.73;;;5.27;;
54699;SDS011;40599;53.132;6.090;2023-06-10T10:31:16;8.67;;;5.73;;
54699;SDS011;40599;53.132;6.090;2023-06-10T10:34:00;9.40;;;7.07;;
54699;SDS011;40599;53.132;6.090;2023-06-10T10:36:29;8.67;;;5.53;;
54699;SDS011;40599;53.132;6.090;2023-06-10T10:41:21;9.00;;;5.23;;
54699;SDS011;40599;53.132;6.090;2023-06-10T10:43:49;10.97;;;5.10;;
54699;SDS011;40599;53.132;6.090;2023-06-10T10:46:16;10.57;;;5.27;;
54699;SDS011;40599;53.132;6.090;2023-06-10T10:48:43;9.43;;;5.40;;
54699;SDS011;40599;53.132;6.090;2023-06-10T10:51:10;8.47;;;5.70;;
54699;SDS011;40599;53.132;6.090;2023-06-10T10:56:07;9.27;;;5.40;;
54699;SDS011;40599;53.132;6.090;2023-06-10T10:58:33;8.40;;;5.17;;
54699;SDS011;40599;53.132;6.090;2023-06-10T11:00:59;7.63;;;5.03;;
54699;SDS011;40599;53.132;6.090;2023-06-10T11:05:52;10.23;;;4.73;;
54699;SDS011;40599;53.132;6.090;2023-06-10T11:09:00;6.72;;;4.63;;
54699;SDS011;40599;53.132;6.090;2023-06-10T11:11:24;7.37;;;5.63;;
54699;SDS011;40599;53.132;6.090;2023-06-10T11:16:44;7.57;;;4.80;;
54699;SDS011;40599;53.132;6.090;2023-06-10T11:19:12;5.75;;;4.15;;
54699;SDS011;40599;53.132;6.090;2023-06-10T11:22:00;6.63;;;4.63;;
54699;SDS011;40599;53.132;6.090;2023-06-10T11:24:26;7.87;;;5.07;;
54699;SDS011;40599;53.132;6.090;2023-06-10T11:26:52;6.65;;;4.95;;
54699;SDS011;40599;53.132;6.090;2023-06-10T11:29:18;9.02;;;5.35;;
54699;SDS011;40599;53.132;6.090;2023-06-10T11:31:48;8.70;;;5.23;;
54699;SDS011;40599;53.132;6.090;2023-06-10T11:34:15;8.77;;;5.67;;
54699;SDS011;40599;53.132;6.090;2023-06-10T11:36:42;8.17;;;4.70;;
54699;SDS011;40599;53.132;6.090;2023-06-10T11:39:10;8.73;;;4.70;;
54699;SDS011;40599;53.132;6.090;2023-06-10T11:41:37;10.93;;;5.00;;
54699;SDS011;40599;53.132;6.090;2023-06-10T11:44:04;10.10;;;6.07;;
54699;SDS011;40599;53.132;6.090;2023-06-10T11:46:33;8.43;;;4.70;;
54699;SDS011;40599;53.132;6.090;2023-06-10T11:51:25;7.80;;;4.93;;
54699;SDS011;40599;53.132;6.090;2023-06-10T11:53:52;9.77;;;6.10;;
54699;SDS011;40599;53.132;6.090;2023-06-10T11:56:22;7.07;;;5.33;;
54699;SDS011;40599;53.132;6.090;2023-06-10T11:59:03;7.83;;;5.47;;
54699;SDS011;40599;53.132;6.090;2023-06-10T12:01:31;9.07;;;4.73;;
54699;SDS011;40599;53.132;6.090;2023-06-10T12:03:58;7.70;;;4.50;;
54699;SDS011;40599;53.132;6.090;2023-06-10T12:06:24;6.40;;;4.33;;
54699;SDS011;40599;53.132;6.090;2023-06-10T12:11:17;7.47;;;5.30;;
54699;SDS011;40599;53.132;6.090;2023-06-10T12:16:12;8.17;;;5.07;;
54699;SDS011;40599;53.132;6.090;2023-06-10T12:21:14;9.43;;;4.63;;
54699;SDS011;40599;53.132;6.090;2023-06-10T12:26:07;6.78;;;4.70;;
54699;SDS011;40599;53.132;6.090;2023-06-10T12:28:33;5.88;;;4.38;;
54699;SDS011;40599;53.132;6.090;2023-06-10T12:31:09;6.38;;;4.63;;
54699;SDS011;40599;53.132;6.090;2023-06-10T12:33:35;6.53;;;4.70;;
54699;SDS011;40599;53.132;6.090;2023-06-10T12:36:01;7.10;;;4.27;;
54699;SDS011;40599;53.132;6.090;2023-06-10T12:40:54;10.40;;;5.60;;
54699;SDS011;40599;53.132;6.090;2023-06-10T12:43:24;7.47;;;5.33;;
54699;SDS011;40599;53.132;6.090;2023-06-10T12:45:51;8.07;;;4.97;;
54699;SDS011;40599;53.132;6.090;2023-06-10T12:48:23;6.95;;;5.45;;
54699;SDS011;40599;53.132;6.090;2023-06-10T12:50:53;6.00;;;4.40;;
54699;SDS011;40599;53.132;6.090;2023-06-10T12:53:20;7.77;;;4.90;;
54699;SDS011;40599;53.132;6.090;2023-06-10T12:55:46;8.63;;;4.60;;
54699;SDS011;40599;53.132;6.090;2023-06-10T12:58:13;8.27;;;4.33;;
54699;SDS011;40599;53.132;6.090;2023-06-10T13:00:39;6.23;;;4.13;;
54699;SDS011;40599;53.132;6.090;2023-06-10T13:03:07;9.47;;;6.43;;
54699;SDS011;40599;53.132;6.090;2023-06-10T13:05:34;9.17;;;8.03;;
54699;SDS011;40599;53.132;6.090;2023-06-10T13:08:02;9.33;;;6.20;;
54699;SDS011;40599;53.132;6.090;2023-06-10T13:10:28;4.77;;;4.03;;
54699;SDS011;40599;53.132;6.090;2023-06-10T13:12:55;6.90;;;4.63;;
54699;SDS011;40599;53.132;6.090;2023-06-10T13:17:47;23.43;;;21.67;;
54699;SDS011;40599;53.132;6.090;2023-06-10T13:20:16;26.20;;;23.80;;
54699;SDS011;40599;53.132;6.090;2023-06-10T13:22:43;19.93;;;18.20;;
54699;SDS011;40599;53.132;6.090;2023-06-10T13:25:10;18.23;;;15.83;;
54699;SDS011;40599;53.132;6.090;2023-06-10T13:27:36;25.57;;;23.27;;
54699;SDS011;40599;53.132;6.090;2023-06-10T13:30:04;31.80;;;28.97;;
54699;SDS011;40599;53.132;6.090;2023-06-10T13:32:31;13.43;;;8.23;;
54699;SDS011;40599;53.132;6.090;2023-06-10T13:34:57;14.80;;;12.27;;
54699;SDS011;40599;53.132;6.090;2023-06-10T13:37:23;19.33;;;17.50;;
54699;SDS011;40599;53.132;6.090;2023-06-10T13:39:49;15.05;;;10.73;;
54699;SDS011;40599;53.132;6.090;2023-06-10T13:44:42;36.60;;;33.90;;
54699;SDS011;40599;53.132;6.090;2023-06-10T13:47:08;13.80;;;11.65;;
54699;SDS011;40599;53.132;6.090;2023-06-10T13:49:34;13.27;;;11.30;;
54699;SDS011;40599;53.132;6.090;2023-06-10T13:52:01;13.20;;;10.07;;
54699;SDS011;40599;53.132;6.090;2023-06-10T13:54:27;14.23;;;8.90;;
54699;SDS011;40599;53.132;6.090;2023-06-10T13:56:53;18.90;;;16.95;;
54699;SDS011;40599;53.132;6.090;2023-06-10T13:59:20;25.53;;;23.43;;
54699;SDS011;40599;53.132;6.090;2023-06-10T14:01:46;21.27;;;17.27;;
54699;SDS011;40599;53.132;6.090;2023-06-10T14:06:38;25.30;;;22.77;;
54699;SDS011;40599;53.132;6.090;2023-06-10T14:11:31;13.90;;;12.50;;
54699;SDS011;40599;53.132;6.090;2023-06-10T14:13:57;27.67;;;25.33;;
54699;SDS011;40599;53.132;6.090;2023-06-10T14:16:25;23.30;;;21.00;;
54699;SDS011;40599;53.132;6.090;2023-06-10T14:18:52;14.48;;;7.82;;
54699;SDS011;40599;53.132;6.090;2023-06-10T14:21:18;19.08;;;17.30;;
54699;SDS011;40599;53.132;6.090;2023-06-10T14:26:10;16.77;;;9.93;;
54699;SDS011;40599;53.132;6.090;2023-06-10T14:28:37;22.10;;;11.73;;
54699;SDS011;40599;53.132;6.090;2023-06-10T14:31:03;16.10;;;12.90;;
54699;SDS011;40599;53.132;6.090;2023-06-10T14:35:56;15.25;;;9.00;;
54699;SDS011;40599;53.132;6.090;2023-06-10T14:38:23;16.37;;;14.87;;
54699;SDS011;40599;53.132;6.090;2023-06-10T14:40:49;13.27;;;11.20;;
54699;SDS011;40599;53.132;6.090;2023-06-10T14:45:41;13.83;;;11.67;;
54699;SDS011;40599;53.132;6.090;2023-06-10T14:48:08;14.77;;;13.33;;
54699;SDS011;40599;53.132;6.090;2023-06-10T14:53:01;20.87;;;16.87;;
54699;SDS011;40599;53.132;6.090;2023-06-10T14:55:27;15.30;;;12.27;;
54699;SDS011;40599;53.132;6.090;2023-06-10T14:57:53;18.42;;;11.07;;
54699;SDS011;40599;53.132;6.090;2023-06-10T15:00:21;12.20;;;9.20;;
54699;SDS011;40599;53.132;6.090;2023-06-10T15:02:50;20.77;;;18.60;;
54699;SDS011;40599;53.132;6.090;2023-06-10T15:07:44;28.75;;;26.60;;
54699;SDS011;40599;53.132;6.090;2023-06-10T15:12:36;21.43;;;19.67;;
54699;SDS011;40599;53.132;6.090;2023-06-10T15:17:28;17.00;;;15.50;;
54699;SDS011;40599;53.132;6.090;2023-06-10T15:19:55;10.90;;;6.47;;
54699;SDS011;40599;53.132;6.090;2023-06-10T15:22:21;14.38;;;10.40;;
54699;SDS011;40599;53.132;6.090;2023-06-10T15:24:48;20.20;;;15.70;;
54699;SDS011;40599;53.132;6.090;2023-06-10T15:27:14;14.67;;;12.80;;
54699;SDS011;40599;53.132;6.090;2023-06-10T15:32:07;20.33;;;18.63;;
54699;SDS011;40599;53.132;6.090;2023-06-10T15:34:33;12.00;;;10.43;;
54699;SDS011;40599;53.132;6.090;2023-06-10T15:37:01;18.90;;;17.10;;
54699;SDS011;40599;53.132;6.090;2023-06-10T15:39:27;17.05;;;11.40;;
54699;SDS011;40599;53.132;6.090;2023-06-10T15:41:55;23.00;;;21.07;;
54699;SDS011;40599;53.132;6.090;2023-06-10T15:44:21;12.57;;;6.85;;
54699;SDS011;40599;53.132;6.090;2023-06-10T15:46:47;19.17;;;17.48;;
54699;SDS011;40599;53.132;6.090;2023-06-10T15:49:15;21.80;;;19.80;;
54699;SDS011;40599;53.132;6.090;2023-06-10T15:51:41;16.77;;;15.17;;
54699;SDS011;40599;53.132;6.090;2023-06-10T15:54:07;22.33;;;20.02;;
54699;SDS011;40599;53.132;6.090;2023-06-10T15:59:00;14.32;;;7.57;;
54699;SDS011;40599;53.132;6.090;2023-06-10T16:01:27;17.38;;;14.55;;